WetterOnline ( https://www.wetteronline.ch )

Wetter aktuell Pfälzer Wald (in 400m)

Aktuelles Wetter: Weinbiet/Pfalz (557m)

6-stündlich | Neueste Meldungen
Ortszeit Temperatur Wetter
Di, 24.09. 8:00 11.2° C wolkig
Di, 24.09. 2:00 10.9° C wolkenlos
Mo, 23.09. 20:00 12.5° C leicht bewölkt
Mo, 23.09. 14:00 14.9° C wolkig
Mo, 23.09. 8:00 11.7° C Nebel
Mo, 23.09. 2:00 13.9° C leichter Regen
So, 22.09. 20:00 17.7° C wolkig
So, 22.09. 14:00 21.2° C bedeckt
Ortszeit Temperatur Wetter
Di, 24.09. 10:00 13.4° C wolkig
Di, 24.09. 9:50 13.4° C wolkig
Di, 24.09. 9:40 13.4° C wolkig
Di, 24.09. 9:30 13.3° C wolkig
Di, 24.09. 9:20 13.3° C wolkig
Di, 24.09. 9:10 12.9° C wolkig
Di, 24.09. 9:00 12.4° C wolkig
Di, 24.09. 8:30 11.8° C wolkig
Di, 24.09. 8:00 11.2° C wolkig
Di, 24.09. 7:30 11.2° C leicht bewölkt
Di, 24.09. 7:00 11.0° C wolkenlos
Ortszeit Relative Feuchte Sichtweite
Di, 24.09. 8:00 91% 10 km
Di, 24.09. 2:00 100% 10 km
Mo, 23.09. 20:00 90% 10 km
Mo, 23.09. 14:00 78% 10 km
Mo, 23.09. 8:00 100% 0.2 km
Mo, 23.09. 2:00 97% 10 km
So, 22.09. 20:00 61% 10 km
So, 22.09. 14:00 46% 10 km
Ortszeit Relative Feuchte Sichtweite
Di, 24.09. 10:00 83% 10 km
Di, 24.09. 9:50 83% -
Di, 24.09. 9:40 84% -
Di, 24.09. 9:30 84% 10 km
Di, 24.09. 9:20 84% -
Di, 24.09. 9:10 84% -
Di, 24.09. 9:00 85% 10 km
Di, 24.09. 8:30 87% 10 km
Di, 24.09. 8:00 91% 10 km
Di, 24.09. 7:30 92% 10 km
Di, 24.09. 7:00 93% 10 km
Ortszeit Niederschlagsmenge Niederschlagsart
Di, 24.09. 8:00 0.0 l/m2 in 12 Std. -
Di, 24.09. 2:00 0.0 l/m2 in 6 Std. -
Mo, 23.09. 20:00 0.2 l/m2 in 12 Std. Regen
Mo, 23.09. 14:00 0.2 l/m2 in 6 Std. Regen
Mo, 23.09. 8:00 10 l/m2 in 12 Std. Regen
Mo, 23.09. 2:00 0.2 l/m2 in 6 Std. Regen
So, 22.09. 20:00 0.0 l/m2 in 12 Std. -
So, 22.09. 14:00 0.0 l/m2 in 6 Std. -
Ortszeit Niederschlagsmenge Niederschlagsart
Di, 24.09. 10:00 0.0 l/m2 in 1 Std. -
Di, 24.09. 9:50 keine Meldung -
Di, 24.09. 9:40 keine Meldung -
Di, 24.09. 9:30 0.0 l/m2 in 1 Std. -
Di, 24.09. 9:20 keine Meldung -
Di, 24.09. 9:10 keine Meldung -
Di, 24.09. 9:00 0.0 l/m2 in 1 Std. -
Di, 24.09. 8:30 0.0 l/m2 in 1 Std. -
Di, 24.09. 8:00 0.0 l/m2 in 1 Std. -
Di, 24.09. 7:30 0.0 l/m2 in 1 Std. -
Di, 24.09. 7:00 0.0 l/m2 in 1 Std. -
Ortszeit Stärke Spitze Richtung
km/h Bft. km/h Grad Sektor
Di, 24.09. 8:00 18 3 32 210° SW
Di, 24.09. 2:00 25 4 32 260° W
Mo, 23.09. 20:00 13 3 44 250° W
Mo, 23.09. 14:00 26 4 44 250° W
Mo, 23.09. 8:00 22 4 72 250° W
Mo, 23.09. 2:00 40 6 54 260° W
So, 22.09. 20:00 20 4 22 110° O
So, 22.09. 14:00 4 1 25 240° SW
Ortszeit Stärke Spitze Richtung
km/h Bft. km/h Grad Sektor
Di, 24.09. 10:00 7 2 18 150° SO
Di, 24.09. 9:50 7 2 - 150° SO
Di, 24.09. 9:40 7 2 - 120° SO
Di, 24.09. 9:30 11 2 18 150° SO
Di, 24.09. 9:20 11 2 - 150° SO
Di, 24.09. 9:10 11 2 - 170° S
Di, 24.09. 9:00 13 3 19 170° S
Di, 24.09. 8:30 14 3 18 200° S
Di, 24.09. 8:00 18 3 22 210° SW
Di, 24.09. 7:30 13 3 17 220° SW
Di, 24.09. 7:00 11 2 14 180° S
Ortszeit Untergrenze Bedeckung Gattung
total tief tief mittel hoch
Di, 24.09. 8:00 8100 m 8/8 0/8 - - -
Di, 24.09. 2:00 - 0/8 0/8 - - -
Mo, 23.09. 20:00 780 m 3/8 3/8 - - -
Mo, 23.09. 14:00 480 m 8/8 1/8 - - -
Mo, 23.09. 8:00 <30 m 8/8 0/8 - - -
Mo, 23.09. 2:00 150 m 7/8 7/8 - - -
So, 22.09. 20:00 1800 m 8/8 2/8 - - -
So, 22.09. 14:00 3900 m 8/8 8/8 - - -
Ortszeit Bedeckungsgrad in Achtel und Wolkenuntergrenze
Di, 24.09. 10:00 8(7200m)
Di, 24.09. 9:50 8(7200m)
Di, 24.09. 9:40 8(7200m)
Di, 24.09. 9:30 8(7500m)
Di, 24.09. 9:20 8(7500m)
Di, 24.09. 9:10 8(7500m)
Di, 24.09. 9:00 8(7500m)
Di, 24.09. 8:30 8(7800m)
Di, 24.09. 8:00 8(8100m)
Di, 24.09. 7:30 4(8400m)
Di, 24.09. 7:00 keine Wolken
Ortszeit Luftdruck NN (hPa) Tendenz (hPa in 3 Std.)
Di, 24.09. 8:00 1016 - 0,6
Di, 24.09. 2:00 1018 - 0,4
Mo, 23.09. 20:00 1018 + 0,7
Mo, 23.09. 14:00 1016 + 0,1
Mo, 23.09. 8:00 1015 + 1,0
Mo, 23.09. 2:00 1012 + 1,1
So, 22.09. 20:00 1009 - 0,6
So, 22.09. 14:00 1010 - 0,8
Ortszeit Luftdruck NN (hPa) Tendenz (hPa in 3 Std.)
Di, 24.09. 10:00 1014 - 1,2
Di, 24.09. 9:50 1014 keine Meldung
Di, 24.09. 9:40 1014 keine Meldung
Di, 24.09. 9:30 1014 - 0,7
Di, 24.09. 9:20 1014 keine Meldung
Di, 24.09. 9:10 1015 keine Meldung
Di, 24.09. 9:00 1015 - 0,4
Di, 24.09. 8:30 1016 - 0,5
Di, 24.09. 8:00 1016 - 0,6
Di, 24.09. 7:30 1016 - 0,6
Di, 24.09. 7:00 1016 - 0,8
Ortszeit Schneehöhe (cm)
Di, 24.09. 8:00 -
Di, 24.09. 2:00 -
Mo, 23.09. 20:00 -
Mo, 23.09. 14:00 -
Mo, 23.09. 8:00 -
Mo, 23.09. 2:00 -
So, 22.09. 20:00 -
So, 22.09. 14:00 -
Ortszeit Schneehöhe (cm)
Di, 24.09. 10:00 -
Di, 24.09. 9:50 -
Di, 24.09. 9:40 -
Di, 24.09. 9:30 -
Di, 24.09. 9:20 -
Di, 24.09. 9:10 -
Di, 24.09. 9:00 -
Di, 24.09. 8:30 -
Di, 24.09. 8:00 -
Di, 24.09. 7:30 -
Di, 24.09. 7:00 -
Link zu dieser Seite / Seite empfehlen

Das Wetter in ...